sensor_id;sensor_type;location;lat;lon;timestamp;P1;durP1;ratioP1;P2;durP2;ratioP2
7193;SDS011;3638;48.820;9.244;2023-02-28T00:00:36;5.47;;;4.90;;
7193;SDS011;3638;48.820;9.244;2023-02-28T00:03:04;5.40;;;5.00;;
7193;SDS011;3638;48.820;9.244;2023-02-28T00:05:31;5.43;;;4.93;;
7193;SDS011;3638;48.820;9.244;2023-02-28T00:07:59;5.40;;;4.90;;
7193;SDS011;3638;48.820;9.244;2023-02-28T00:10:26;5.53;;;5.03;;
7193;SDS011;3638;48.820;9.244;2023-02-28T00:12:58;5.73;;;5.17;;
7193;SDS011;3638;48.820;9.244;2023-02-28T00:15:29;5.17;;;4.67;;
7193;SDS011;3638;48.820;9.244;2023-02-28T00:17:56;5.00;;;4.50;;
7193;SDS011;3638;48.820;9.244;2023-02-28T00:20:23;5.20;;;4.70;;
7193;SDS011;3638;48.820;9.244;2023-02-28T00:22:51;5.50;;;5.10;;
7193;SDS011;3638;48.820;9.244;2023-02-28T00:25:20;5.87;;;5.13;;
7193;SDS011;3638;48.820;9.244;2023-02-28T00:27:49;6.00;;;5.40;;
7193;SDS011;3638;48.820;9.244;2023-02-28T00:30:18;5.00;;;4.60;;
7193;SDS011;3638;48.820;9.244;2023-02-28T00:32:47;5.53;;;4.93;;
7193;SDS011;3638;48.820;9.244;2023-02-28T00:35:14;5.83;;;5.30;;
7193;SDS011;3638;48.820;9.244;2023-02-28T00:37:41;5.43;;;5.00;;
7193;SDS011;3638;48.820;9.244;2023-02-28T00:40:09;5.20;;;4.70;;
7193;SDS011;3638;48.820;9.244;2023-02-28T00:42:37;5.47;;;4.97;;
7193;SDS011;3638;48.820;9.244;2023-02-28T00:45:04;5.33;;;4.93;;
7193;SDS011;3638;48.820;9.244;2023-02-28T00:47:34;5.67;;;5.17;;
7193;SDS011;3638;48.820;9.244;2023-02-28T00:50:01;5.90;;;5.30;;
7193;SDS011;3638;48.820;9.244;2023-02-28T00:52:29;5.77;;;5.20;;
7193;SDS011;3638;48.820;9.244;2023-02-28T00:54:56;5.90;;;5.40;;
7193;SDS011;3638;48.820;9.244;2023-02-28T00:57:23;5.47;;;4.90;;
7193;SDS011;3638;48.820;9.244;2023-02-28T00:59:50;5.30;;;4.90;;
7193;SDS011;3638;48.820;9.244;2023-02-28T01:02:19;6.17;;;5.40;;
7193;SDS011;3638;48.820;9.244;2023-02-28T01:04:47;5.43;;;4.93;;
7193;SDS011;3638;48.820;9.244;2023-02-28T01:07:14;5.47;;;5.07;;
7193;SDS011;3638;48.820;9.244;2023-02-28T01:09:41;5.90;;;5.40;;
7193;SDS011;3638;48.820;9.244;2023-02-28T01:12:08;5.40;;;5.00;;
7193;SDS011;3638;48.820;9.244;2023-02-28T01:14:35;6.87;;;5.37;;
7193;SDS011;3638;48.820;9.244;2023-02-28T01:17:02;5.70;;;5.20;;
7193;SDS011;3638;48.820;9.244;2023-02-28T01:19:29;5.60;;;5.10;;
7193;SDS011;3638;48.820;9.244;2023-02-28T01:21:57;6.57;;;5.90;;
7193;SDS011;3638;48.820;9.244;2023-02-28T01:24:27;6.10;;;5.50;;
7193;SDS011;3638;48.820;9.244;2023-02-28T01:26:54;5.40;;;5.00;;
7193;SDS011;3638;48.820;9.244;2023-02-28T01:29:21;5.87;;;5.40;;
7193;SDS011;3638;48.820;9.244;2023-02-28T01:31:48;6.53;;;5.77;;
7193;SDS011;3638;48.820;9.244;2023-02-28T01:34:15;6.50;;;5.83;;
7193;SDS011;3638;48.820;9.244;2023-02-28T01:36:44;5.80;;;5.30;;
7193;SDS011;3638;48.820;9.244;2023-02-28T01:39:13;6.20;;;5.50;;
7193;SDS011;3638;48.820;9.244;2023-02-28T01:41:39;6.70;;;6.00;;
7193;SDS011;3638;48.820;9.244;2023-02-28T01:44:53;6.00;;;5.50;;
7193;SDS011;3638;48.820;9.244;2023-02-28T01:47:38;6.60;;;6.00;;
7193;SDS011;3638;48.820;9.244;2023-02-28T01:50:09;6.70;;;6.10;;
7193;SDS011;3638;48.820;9.244;2023-02-28T01:52:41;6.80;;;6.20;;
7193;SDS011;3638;48.820;9.244;2023-02-28T01:55:09;6.40;;;5.83;;
7193;SDS011;3638;48.820;9.244;2023-02-28T01:57:40;6.83;;;6.20;;
7193;SDS011;3638;48.820;9.244;2023-02-28T02:00:13;6.77;;;6.27;;
7193;SDS011;3638;48.820;9.244;2023-02-28T02:02:44;6.13;;;5.63;;
7193;SDS011;3638;48.820;9.244;2023-02-28T02:05:14;6.80;;;6.10;;
7193;SDS011;3638;48.820;9.244;2023-02-28T02:07:43;6.43;;;5.83;;
7193;SDS011;3638;48.820;9.244;2023-02-28T02:10:14;6.30;;;5.80;;
7193;SDS011;3638;48.820;9.244;2023-02-28T02:15:48;6.10;;;5.53;;
7193;SDS011;3638;48.820;9.244;2023-02-28T02:18:26;7.73;;;6.20;;
7193;SDS011;3638;48.820;9.244;2023-02-28T02:21:05;6.70;;;6.10;;
7193;SDS011;3638;48.820;9.244;2023-02-28T02:24:31;6.13;;;5.70;;
7193;SDS011;3638;48.820;9.244;2023-02-28T02:27:26;6.93;;;6.23;;
7193;SDS011;3638;48.820;9.244;2023-02-28T02:30:17;7.37;;;6.67;;
7193;SDS011;3638;48.820;9.244;2023-02-28T02:33:39;6.80;;;6.20;;
7193;SDS011;3638;48.820;9.244;2023-02-28T02:36:42;7.23;;;6.43;;
7193;SDS011;3638;48.820;9.244;2023-02-28T02:39:17;6.73;;;6.13;;
7193;SDS011;3638;48.820;9.244;2023-02-28T02:41:54;6.63;;;6.13;;
7193;SDS011;3638;48.820;9.244;2023-02-28T02:44:26;6.33;;;5.80;;
7193;SDS011;3638;48.820;9.244;2023-02-28T02:46:58;7.20;;;6.07;;
7193;SDS011;3638;48.820;9.244;2023-02-28T02:49:31;6.70;;;6.17;;
7193;SDS011;3638;48.820;9.244;2023-02-28T02:52:01;7.20;;;6.50;;
7193;SDS011;3638;48.820;9.244;2023-02-28T02:54:31;6.90;;;6.20;;
7193;SDS011;3638;48.820;9.244;2023-02-28T02:57:05;6.67;;;5.97;;
7193;SDS011;3638;48.820;9.244;2023-02-28T02:59:38;6.90;;;6.27;;
7193;SDS011;3638;48.820;9.244;2023-02-28T03:02:07;7.20;;;6.60;;
7193;SDS011;3638;48.820;9.244;2023-02-28T03:04:40;7.13;;;6.53;;
7193;SDS011;3638;48.820;9.244;2023-02-28T03:07:11;7.33;;;6.73;;
7193;SDS011;3638;48.820;9.244;2023-02-28T03:09:38;7.67;;;6.87;;
7193;SDS011;3638;48.820;9.244;2023-02-28T03:12:08;9.37;;;6.97;;
7193;SDS011;3638;48.820;9.244;2023-02-28T03:14:40;7.47;;;6.73;;
7193;SDS011;3638;48.820;9.244;2023-02-28T03:20:22;7.50;;;6.80;;
7193;SDS011;3638;48.820;9.244;2023-02-28T03:23:01;7.30;;;6.60;;
7193;SDS011;3638;48.820;9.244;2023-02-28T03:25:41;7.67;;;6.97;;
7193;SDS011;3638;48.820;9.244;2023-02-28T03:28:22;7.63;;;6.83;;
7193;SDS011;3638;48.820;9.244;2023-02-28T03:30:58;7.73;;;6.57;;
7193;SDS011;3638;48.820;9.244;2023-02-28T03:33:30;7.77;;;7.03;;
7193;SDS011;3638;48.820;9.244;2023-02-28T03:36:04;7.33;;;6.63;;
7193;SDS011;3638;48.820;9.244;2023-02-28T03:38:38;7.83;;;7.07;;
7193;SDS011;3638;48.820;9.244;2023-02-28T03:41:11;8.13;;;6.77;;
7193;SDS011;3638;48.820;9.244;2023-02-28T03:43:43;7.90;;;7.10;;
7193;SDS011;3638;48.820;9.244;2023-02-28T03:46:22;8.60;;;6.93;;
7193;SDS011;3638;48.820;9.244;2023-02-28T03:48:53;8.10;;;7.40;;
7193;SDS011;3638;48.820;9.244;2023-02-28T03:51:30;7.70;;;6.93;;
7193;SDS011;3638;48.820;9.244;2023-02-28T03:53:58;7.33;;;6.60;;
7193;SDS011;3638;48.820;9.244;2023-02-28T03:56:32;7.90;;;7.00;;
7193;SDS011;3638;48.820;9.244;2023-02-28T03:59:04;8.40;;;6.70;;
7193;SDS011;3638;48.820;9.244;2023-02-28T04:01:37;7.43;;;6.70;;
7193;SDS011;3638;48.820;9.244;2023-02-28T04:04:07;7.63;;;6.80;;
7193;SDS011;3638;48.820;9.244;2023-02-28T04:06:35;7.97;;;7.20;;
7193;SDS011;3638;48.820;9.244;2023-02-28T04:09:04;7.77;;;7.00;;
7193;SDS011;3638;48.820;9.244;2023-02-28T04:11:33;7.60;;;6.87;;
7193;SDS011;3638;48.820;9.244;2023-02-28T04:14:02;7.30;;;6.70;;
7193;SDS011;3638;48.820;9.244;2023-02-28T04:16:31;8.13;;;7.33;;
7193;SDS011;3638;48.820;9.244;2023-02-28T04:18:59;7.83;;;7.03;;
7193;SDS011;3638;48.820;9.244;2023-02-28T04:21:28;7.80;;;7.03;;
7193;SDS011;3638;48.820;9.244;2023-02-28T04:23:56;7.50;;;6.80;;
7193;SDS011;3638;48.820;9.244;2023-02-28T04:26:25;6.97;;;6.40;;
7193;SDS011;3638;48.820;9.244;2023-02-28T04:28:55;7.73;;;6.93;;
7193;SDS011;3638;48.820;9.244;2023-02-28T04:31:22;7.47;;;6.63;;
7193;SDS011;3638;48.820;9.244;2023-02-28T04:33:49;7.73;;;7.03;;
7193;SDS011;3638;48.820;9.244;2023-02-28T04:36:16;7.70;;;7.00;;
7193;SDS011;3638;48.820;9.244;2023-02-28T04:38:44;7.83;;;7.13;;
7193;SDS011;3638;48.820;9.244;2023-02-28T04:41:13;7.43;;;6.70;;
7193;SDS011;3638;48.820;9.244;2023-02-28T04:43:40;8.57;;;7.33;;
7193;SDS011;3638;48.820;9.244;2023-02-28T04:46:07;9.07;;;7.40;;
7193;SDS011;3638;48.820;9.244;2023-02-28T04:48:37;7.63;;;6.77;;
7193;SDS011;3638;48.820;9.244;2023-02-28T04:51:05;7.60;;;6.90;;
7193;SDS011;3638;48.820;9.244;2023-02-28T04:53:34;8.07;;;7.30;;
7193;SDS011;3638;48.820;9.244;2023-02-28T04:56:02;7.53;;;6.83;;
7193;SDS011;3638;48.820;9.244;2023-02-28T04:58:31;8.80;;;7.60;;
7193;SDS011;3638;48.820;9.244;2023-02-28T05:01:01;8.13;;;7.43;;
7193;SDS011;3638;48.820;9.244;2023-02-28T05:03:37;8.50;;;7.60;;
7193;SDS011;3638;48.820;9.244;2023-02-28T05:06:05;8.20;;;7.40;;
7193;SDS011;3638;48.820;9.244;2023-02-28T05:08:32;8.27;;;7.47;;
7193;SDS011;3638;48.820;9.244;2023-02-28T05:10:59;8.23;;;7.43;;
7193;SDS011;3638;48.820;9.244;2023-02-28T05:13:27;8.50;;;7.70;;
7193;SDS011;3638;48.820;9.244;2023-02-28T05:15:56;8.77;;;7.87;;
7193;SDS011;3638;48.820;9.244;2023-02-28T05:18:23;8.43;;;7.63;;
7193;SDS011;3638;48.820;9.244;2023-02-28T05:20:50;7.70;;;7.00;;
7193;SDS011;3638;48.820;9.244;2023-02-28T05:23:17;8.63;;;7.80;;
7193;SDS011;3638;48.820;9.244;2023-02-28T05:25:45;8.43;;;7.67;;
7193;SDS011;3638;48.820;9.244;2023-02-28T05:28:12;8.87;;;8.00;;
7193;SDS011;3638;48.820;9.244;2023-02-28T05:30:39;9.03;;;8.10;;
7193;SDS011;3638;48.820;9.244;2023-02-28T05:33:09;9.97;;;8.50;;
7193;SDS011;3638;48.820;9.244;2023-02-28T05:35:37;9.63;;;8.63;;
7193;SDS011;3638;48.820;9.244;2023-02-28T05:38:05;11.83;;;8.40;;
7193;SDS011;3638;48.820;9.244;2023-02-28T05:40:32;10.73;;;7.80;;
7193;SDS011;3638;48.820;9.244;2023-02-28T05:42:59;9.80;;;8.90;;
7193;SDS011;3638;48.820;9.244;2023-02-28T05:45:26;9.97;;;8.43;;
7193;SDS011;3638;48.820;9.244;2023-02-28T05:47:53;9.00;;;8.20;;
7193;SDS011;3638;48.820;9.244;2023-02-28T05:50:22;8.93;;;8.13;;
7193;SDS011;3638;48.820;9.244;2023-02-28T05:52:49;8.80;;;7.90;;
7193;SDS011;3638;48.820;9.244;2023-02-28T05:55:16;9.37;;;8.37;;
7193;SDS011;3638;48.820;9.244;2023-02-28T05:57:43;9.33;;;8.43;;
7193;SDS011;3638;48.820;9.244;2023-02-28T06:00:10;8.23;;;7.43;;
7193;SDS011;3638;48.820;9.244;2023-02-28T06:02:40;9.20;;;8.20;;
7193;SDS011;3638;48.820;9.244;2023-02-28T06:05:07;11.20;;;8.67;;
7193;SDS011;3638;48.820;9.244;2023-02-28T06:07:40;8.93;;;8.03;;
7193;SDS011;3638;48.820;9.244;2023-02-28T06:10:08;10.40;;;7.97;;
7193;SDS011;3638;48.820;9.244;2023-02-28T06:12:36;9.00;;;8.20;;
7193;SDS011;3638;48.820;9.244;2023-02-28T06:15:04;9.80;;;8.17;;
7193;SDS011;3638;48.820;9.244;2023-02-28T06:17:32;10.83;;;8.30;;
7193;SDS011;3638;48.820;9.244;2023-02-28T06:19:58;9.13;;;8.27;;
7193;SDS011;3638;48.820;9.244;2023-02-28T06:22:25;9.37;;;7.87;;
7193;SDS011;3638;48.820;9.244;2023-02-28T06:24:53;9.40;;;8.40;;
7193;SDS011;3638;48.820;9.244;2023-02-28T06:27:21;9.50;;;8.60;;
7193;SDS011;3638;48.820;9.244;2023-02-28T06:29:48;10.63;;;8.60;;
7193;SDS011;3638;48.820;9.244;2023-02-28T06:32:19;10.23;;;9.13;;
7193;SDS011;3638;48.820;9.244;2023-02-28T06:34:46;10.37;;;8.30;;
7193;SDS011;3638;48.820;9.244;2023-02-28T06:37:13;10.37;;;8.47;;
7193;SDS011;3638;48.820;9.244;2023-02-28T06:39:40;9.10;;;8.20;;
7193;SDS011;3638;48.820;9.244;2023-02-28T06:42:08;10.20;;;8.17;;
7193;SDS011;3638;48.820;9.244;2023-02-28T06:44:35;11.37;;;8.43;;
7193;SDS011;3638;48.820;9.244;2023-02-28T06:47:03;9.50;;;8.27;;
7193;SDS011;3638;48.820;9.244;2023-02-28T06:49:32;10.67;;;8.50;;
7193;SDS011;3638;48.820;9.244;2023-02-28T06:52:01;9.20;;;8.27;;
7193;SDS011;3638;48.820;9.244;2023-02-28T06:54:28;11.20;;;8.60;;
7193;SDS011;3638;48.820;9.244;2023-02-28T06:56:55;10.97;;;8.47;;
7193;SDS011;3638;48.820;9.244;2023-02-28T06:59:25;9.37;;;8.47;;
7193;SDS011;3638;48.820;9.244;2023-02-28T07:01:51;9.03;;;8.20;;
7193;SDS011;3638;48.820;9.244;2023-02-28T07:04:19;9.60;;;8.47;;
7193;SDS011;3638;48.820;9.244;2023-02-28T07:06:47;10.43;;;9.43;;
7193;SDS011;3638;48.820;9.244;2023-02-28T07:09:13;9.40;;;8.47;;
7193;SDS011;3638;48.820;9.244;2023-02-28T07:11:41;10.03;;;9.00;;
7193;SDS011;3638;48.820;9.244;2023-02-28T07:14:08;11.17;;;9.43;;
7193;SDS011;3638;48.820;9.244;2023-02-28T07:16:36;10.00;;;8.97;;
7193;SDS011;3638;48.820;9.244;2023-02-28T07:19:03;11.07;;;9.87;;
7193;SDS011;3638;48.820;9.244;2023-02-28T07:21:30;10.10;;;9.07;;
7193;SDS011;3638;48.820;9.244;2023-02-28T07:23:57;9.47;;;8.57;;
7193;SDS011;3638;48.820;9.244;2023-02-28T07:26:24;11.73;;;9.00;;
7193;SDS011;3638;48.820;9.244;2023-02-28T07:28:51;11.10;;;9.83;;
7193;SDS011;3638;48.820;9.244;2023-02-28T07:31:19;14.90;;;10.23;;
7193;SDS011;3638;48.820;9.244;2023-02-28T07:33:47;10.27;;;9.27;;
7193;SDS011;3638;48.820;9.244;2023-02-28T07:36:14;9.03;;;8.13;;
7193;SDS011;3638;48.820;9.244;2023-02-28T07:38:45;10.20;;;9.13;;
7193;SDS011;3638;48.820;9.244;2023-02-28T07:41:14;10.00;;;8.67;;
7193;SDS011;3638;48.820;9.244;2023-02-28T07:43:42;11.87;;;9.50;;
7193;SDS011;3638;48.820;9.244;2023-02-28T07:46:10;11.50;;;9.00;;
7193;SDS011;3638;48.820;9.244;2023-02-28T07:48:41;10.47;;;9.00;;
7193;SDS011;3638;48.820;9.244;2023-02-28T07:51:09;9.50;;;8.53;;
7193;SDS011;3638;48.820;9.244;2023-02-28T07:53:37;10.23;;;8.63;;
7193;SDS011;3638;48.820;9.244;2023-02-28T07:56:04;12.67;;;9.00;;
7193;SDS011;3638;48.820;9.244;2023-02-28T07:58:32;10.07;;;9.00;;
7193;SDS011;3638;48.820;9.244;2023-02-28T08:01:04;9.90;;;8.90;;
7193;SDS011;3638;48.820;9.244;2023-02-28T08:03:33;13.07;;;9.00;;
7193;SDS011;3638;48.820;9.244;2023-02-28T08:06:00;11.67;;;8.80;;
7193;SDS011;3638;48.820;9.244;2023-02-28T08:08:29;10.17;;;9.07;;
7193;SDS011;3638;48.820;9.244;2023-02-28T08:10:57;9.90;;;8.90;;
7193;SDS011;3638;48.820;9.244;2023-02-28T08:13:26;10.70;;;8.70;;
7193;SDS011;3638;48.820;9.244;2023-02-28T08:15:53;10.57;;;9.40;;
7193;SDS011;3638;48.820;9.244;2023-02-28T08:18:21;10.00;;;9.00;;
7193;SDS011;3638;48.820;9.244;2023-02-28T08:20:48;10.00;;;9.00;;
7193;SDS011;3638;48.820;9.244;2023-02-28T08:23:15;10.60;;;9.50;;
7193;SDS011;3638;48.820;9.244;2023-02-28T08:25:44;10.53;;;9.50;;
7193;SDS011;3638;48.820;9.244;2023-02-28T08:28:11;10.60;;;9.60;;
7193;SDS011;3638;48.820;9.244;2023-02-28T08:30:37;11.90;;;9.97;;
7193;SDS011;3638;48.820;9.244;2023-02-28T08:33:06;11.70;;;9.20;;
7193;SDS011;3638;48.820;9.244;2023-02-28T08:35:34;10.50;;;9.07;;
7193;SDS011;3638;48.820;9.244;2023-02-28T08:38:02;10.07;;;9.03;;
7193;SDS011;3638;48.820;9.244;2023-02-28T08:40:29;9.83;;;8.83;;
7193;SDS011;3638;48.820;9.244;2023-02-28T08:42:57;11.03;;;9.40;;
7193;SDS011;3638;48.820;9.244;2023-02-28T08:45:24;10.40;;;9.30;;
7193;SDS011;3638;48.820;9.244;2023-02-28T08:47:51;11.47;;;8.90;;
7193;SDS011;3638;48.820;9.244;2023-02-28T08:50:20;10.73;;;9.53;;
7193;SDS011;3638;48.820;9.244;2023-02-28T08:52:47;10.30;;;9.30;;
7193;SDS011;3638;48.820;9.244;2023-02-28T08:55:14;10.30;;;9.30;;
7193;SDS011;3638;48.820;9.244;2023-02-28T08:57:41;9.97;;;8.97;;
7193;SDS011;3638;48.820;9.244;2023-02-28T09:00:10;12.23;;;9.67;;
7193;SDS011;3638;48.820;9.244;2023-02-28T09:02:39;10.60;;;9.47;;
7193;SDS011;3638;48.820;9.244;2023-02-28T09:05:08;10.03;;;8.90;;
7193;SDS011;3638;48.820;9.244;2023-02-28T09:07:35;10.60;;;8.77;;
7193;SDS011;3638;48.820;9.244;2023-02-28T09:10:02;10.43;;;9.33;;
7193;SDS011;3638;48.820;9.244;2023-02-28T09:12:32;11.03;;;9.13;;
7193;SDS011;3638;48.820;9.244;2023-02-28T09:15:00;12.77;;;8.70;;
7193;SDS011;3638;48.820;9.244;2023-02-28T09:17:29;9.60;;;8.67;;
7193;SDS011;3638;48.820;9.244;2023-02-28T09:19:56;11.90;;;8.90;;
7193;SDS011;3638;48.820;9.244;2023-02-28T09:22:23;11.00;;;9.10;;
7193;SDS011;3638;48.820;9.244;2023-02-28T09:24:50;10.80;;;9.63;;
7193;SDS011;3638;48.820;9.244;2023-02-28T09:27:17;10.00;;;9.00;;
7193;SDS011;3638;48.820;9.244;2023-02-28T09:29:43;12.57;;;9.20;;
7193;SDS011;3638;48.820;9.244;2023-02-28T09:32:10;10.27;;;8.87;;
7193;SDS011;3638;48.820;9.244;2023-02-28T09:34:39;10.47;;;8.67;;
7193;SDS011;3638;48.820;9.244;2023-02-28T09:37:05;10.13;;;9.00;;
7193;SDS011;3638;48.820;9.244;2023-02-28T09:39:32;12.63;;;9.30;;
7193;SDS011;3638;48.820;9.244;2023-02-28T09:41:59;10.17;;;9.03;;
7193;SDS011;3638;48.820;9.244;2023-02-28T09:44:30;10.43;;;9.00;;
7193;SDS011;3638;48.820;9.244;2023-02-28T09:47:05;12.37;;;9.57;;
7193;SDS011;3638;48.820;9.244;2023-02-28T09:49:42;10.63;;;9.47;;
7193;SDS011;3638;48.820;9.244;2023-02-28T09:52:13;10.43;;;9.30;;
7193;SDS011;3638;48.820;9.244;2023-02-28T09:54:45;12.37;;;9.10;;
7193;SDS011;3638;48.820;9.244;2023-02-28T09:57:14;11.87;;;9.57;;
7193;SDS011;3638;48.820;9.244;2023-02-28T09:59:50;11.07;;;9.87;;
7193;SDS011;3638;48.820;9.244;2023-02-28T10:05:31;11.70;;;9.03;;
7193;SDS011;3638;48.820;9.244;2023-02-28T10:08:05;9.97;;;8.97;;
7193;SDS011;3638;48.820;9.244;2023-02-28T10:10:39;10.23;;;8.93;;
7193;SDS011;3638;48.820;9.244;2023-02-28T10:13:14;10.73;;;9.17;;
7193;SDS011;3638;48.820;9.244;2023-02-28T10:15:49;10.13;;;9.07;;
7193;SDS011;3638;48.820;9.244;2023-02-28T10:18:23;10.37;;;9.07;;
7193;SDS011;3638;48.820;9.244;2023-02-28T10:20:56;10.63;;;8.77;;
7193;SDS011;3638;48.820;9.244;2023-02-28T10:23:26;9.80;;;8.80;;
7193;SDS011;3638;48.820;9.244;2023-02-28T10:26:00;10.73;;;9.07;;
7193;SDS011;3638;48.820;9.244;2023-02-28T10:28:36;11.47;;;9.30;;
7193;SDS011;3638;48.820;9.244;2023-02-28T10:31:03;11.07;;;9.77;;
7193;SDS011;3638;48.820;9.244;2023-02-28T10:33:31;10.43;;;9.37;;
7193;SDS011;3638;48.820;9.244;2023-02-28T10:36:02;10.67;;;8.87;;
7193;SDS011;3638;48.820;9.244;2023-02-28T10:38:32;10.80;;;9.70;;
7193;SDS011;3638;48.820;9.244;2023-02-28T10:41:05;12.17;;;9.80;;
7193;SDS011;3638;48.820;9.244;2023-02-28T10:43:34;10.50;;;9.40;;
7193;SDS011;3638;48.820;9.244;2023-02-28T10:46:02;11.83;;;9.53;;
7193;SDS011;3638;48.820;9.244;2023-02-28T10:48:36;10.53;;;9.03;;
7193;SDS011;3638;48.820;9.244;2023-02-28T10:51:07;9.63;;;8.73;;
7193;SDS011;3638;48.820;9.244;2023-02-28T10:53:37;11.30;;;8.70;;
7193;SDS011;3638;48.820;9.244;2023-02-28T10:56:17;10.23;;;9.23;;
7193;SDS011;3638;48.820;9.244;2023-02-28T10:58:47;10.40;;;9.30;;
7193;SDS011;3638;48.820;9.244;2023-02-28T11:01:19;11.30;;;9.07;;
7193;SDS011;3638;48.820;9.244;2023-02-28T11:03:49;10.23;;;8.80;;
7193;SDS011;3638;48.820;9.244;2023-02-28T11:06:20;10.47;;;9.47;;
7193;SDS011;3638;48.820;9.244;2023-02-28T11:08:50;10.80;;;9.00;;
7193;SDS011;3638;48.820;9.244;2023-02-28T11:11:20;10.30;;;9.30;;
7193;SDS011;3638;48.820;9.244;2023-02-28T11:13:50;10.33;;;9.33;;
7193;SDS011;3638;48.820;9.244;2023-02-28T11:16:19;10.40;;;9.20;;
7193;SDS011;3638;48.820;9.244;2023-02-28T11:18:48;10.43;;;9.13;;
7193;SDS011;3638;48.820;9.244;2023-02-28T11:21:22;9.73;;;8.83;;
7193;SDS011;3638;48.820;9.244;2023-02-28T11:23:54;10.60;;;9.50;;
7193;SDS011;3638;48.820;9.244;2023-02-28T11:26:35;9.67;;;8.67;;
7193;SDS011;3638;48.820;9.244;2023-02-28T11:29:12;10.17;;;8.93;;
7193;SDS011;3638;48.820;9.244;2023-02-28T11:34:38;10.57;;;8.50;;
7193;SDS011;3638;48.820;9.244;2023-02-28T11:37:11;10.33;;;8.80;;
7193;SDS011;3638;48.820;9.244;2023-02-28T11:39:40;11.07;;;9.40;;
7193;SDS011;3638;48.820;9.244;2023-02-28T11:45:11;10.37;;;9.00;;
7193;SDS011;3638;48.820;9.244;2023-02-28T11:47:52;11.77;;;8.97;;
7193;SDS011;3638;48.820;9.244;2023-02-28T11:50:31;10.13;;;8.80;;
7193;SDS011;3638;48.820;9.244;2023-02-28T11:53:22;10.13;;;9.13;;
7193;SDS011;3638;48.820;9.244;2023-02-28T11:56:05;10.37;;;9.27;;
7193;SDS011;3638;48.820;9.244;2023-02-28T11:58:39;11.53;;;9.33;;
7193;SDS011;3638;48.820;9.244;2023-02-28T12:01:23;11.37;;;10.03;;
7193;SDS011;3638;48.820;9.244;2023-02-28T12:04:11;10.33;;;9.27;;
7193;SDS011;3638;48.820;9.244;2023-02-28T12:06:50;10.77;;;9.33;;
7193;SDS011;3638;48.820;9.244;2023-02-28T12:09:32;10.20;;;9.17;;
7193;SDS011;3638;48.820;9.244;2023-02-28T12:12:19;9.77;;;8.83;;
7193;SDS011;3638;48.820;9.244;2023-02-28T12:17:57;9.87;;;8.83;;
7193;SDS011;3638;48.820;9.244;2023-02-28T12:20:52;12.53;;;9.60;;
7193;SDS011;3638;48.820;9.244;2023-02-28T12:23:34;10.73;;;8.87;;
7193;SDS011;3638;48.820;9.244;2023-02-28T12:26:23;11.07;;;9.57;;
7193;SDS011;3638;48.820;9.244;2023-02-28T12:29:00;9.93;;;8.77;;
7193;SDS011;3638;48.820;9.244;2023-02-28T12:31:36;10.77;;;9.20;;
7193;SDS011;3638;48.820;9.244;2023-02-28T12:34:09;10.10;;;9.10;;
7193;SDS011;3638;48.820;9.244;2023-02-28T12:36:42;9.67;;;8.50;;
7193;SDS011;3638;48.820;9.244;2023-02-28T12:39:10;9.93;;;8.93;;
7193;SDS011;3638;48.820;9.244;2023-02-28T12:41:45;9.70;;;8.70;;
7193;SDS011;3638;48.820;9.244;2023-02-28T12:44:17;10.53;;;9.50;;
7193;SDS011;3638;48.820;9.244;2023-02-28T12:46:53;10.93;;;9.53;;
7193;SDS011;3638;48.820;9.244;2023-02-28T12:49:25;12.27;;;10.30;;
7193;SDS011;3638;48.820;9.244;2023-02-28T12:51:57;11.13;;;9.17;;
7193;SDS011;3638;48.820;9.244;2023-02-28T12:54:26;9.73;;;8.53;;
7193;SDS011;3638;48.820;9.244;2023-02-28T12:57:01;10.57;;;9.23;;
7193;SDS011;3638;48.820;9.244;2023-02-28T12:59:36;10.17;;;8.97;;
7193;SDS011;3638;48.820;9.244;2023-02-28T13:02:28;9.60;;;8.60;;
7193;SDS011;3638;48.820;9.244;2023-02-28T13:05:33;10.87;;;8.83;;
7193;SDS011;3638;48.820;9.244;2023-02-28T13:08:45;9.20;;;8.40;;
7193;SDS011;3638;48.820;9.244;2023-02-28T13:11:38;9.77;;;8.83;;
7193;SDS011;3638;48.820;9.244;2023-02-28T13:14:18;9.57;;;8.30;;
7193;SDS011;3638;48.820;9.244;2023-02-28T13:16:57;10.53;;;8.77;;
7193;SDS011;3638;48.820;9.244;2023-02-28T13:19:28;9.67;;;8.33;;
7193;SDS011;3638;48.820;9.244;2023-02-28T13:21:58;9.10;;;8.13;;
7193;SDS011;3638;48.820;9.244;2023-02-28T13:24:41;9.43;;;8.53;;
7193;SDS011;3638;48.820;9.244;2023-02-28T13:27:20;11.17;;;8.93;;
7193;SDS011;3638;48.820;9.244;2023-02-28T13:33:27;9.40;;;8.40;;
7193;SDS011;3638;48.820;9.244;2023-02-28T13:38:51;10.20;;;9.20;;
7193;SDS011;3638;48.820;9.244;2023-02-28T13:44:14;9.57;;;8.67;;
7193;SDS011;3638;48.820;9.244;2023-02-28T13:49:51;10.97;;;8.27;;
7193;SDS011;3638;48.820;9.244;2023-02-28T13:52:20;9.83;;;8.77;;
7193;SDS011;3638;48.820;9.244;2023-02-28T13:55:00;9.23;;;8.33;;
7193;SDS011;3638;48.820;9.244;2023-02-28T13:57:52;8.93;;;8.03;;
7193;SDS011;3638;48.820;9.244;2023-02-28T14:00:42;9.20;;;8.03;;
7193;SDS011;3638;48.820;9.244;2023-02-28T14:03:31;8.90;;;8.00;;
7193;SDS011;3638;48.820;9.244;2023-02-28T14:06:18;9.63;;;8.63;;
7193;SDS011;3638;48.820;9.244;2023-02-28T14:08:53;9.97;;;8.97;;
7193;SDS011;3638;48.820;9.244;2023-02-28T14:11:25;8.77;;;7.90;;
7193;SDS011;3638;48.820;9.244;2023-02-28T14:13:56;9.20;;;8.33;;
7193;SDS011;3638;48.820;9.244;2023-02-28T14:16:25;9.50;;;8.23;;
7193;SDS011;3638;48.820;9.244;2023-02-28T14:18:56;11.20;;;8.67;;
7193;SDS011;3638;48.820;9.244;2023-02-28T14:21:29;10.00;;;8.43;;
7193;SDS011;3638;48.820;9.244;2023-02-28T14:27:24;8.60;;;7.77;;
7193;SDS011;3638;48.820;9.244;2023-02-28T14:30:10;10.73;;;8.30;;
7193;SDS011;3638;48.820;9.244;2023-02-28T14:33:08;9.73;;;8.63;;
7193;SDS011;3638;48.820;9.244;2023-02-28T14:35:50;9.27;;;8.23;;
7193;SDS011;3638;48.820;9.244;2023-02-28T14:38:32;9.13;;;8.23;;
7193;SDS011;3638;48.820;9.244;2023-02-28T14:41:04;11.23;;;9.00;;
7193;SDS011;3638;48.820;9.244;2023-02-28T14:43:47;10.40;;;8.97;;
7193;SDS011;3638;48.820;9.244;2023-02-28T14:46:18;10.53;;;8.60;;
7193;SDS011;3638;48.820;9.244;2023-02-28T14:48:46;9.97;;;8.97;;
7193;SDS011;3638;48.820;9.244;2023-02-28T14:51:17;9.40;;;8.50;;
7193;SDS011;3638;48.820;9.244;2023-02-28T14:53:49;9.17;;;8.20;;
7193;SDS011;3638;48.820;9.244;2023-02-28T14:56:19;9.60;;;8.60;;
7193;SDS011;3638;48.820;9.244;2023-02-28T14:58:53;10.07;;;9.03;;
7193;SDS011;3638;48.820;9.244;2023-02-28T15:01:22;9.90;;;8.50;;
7193;SDS011;3638;48.820;9.244;2023-02-28T15:03:57;10.37;;;8.80;;
7193;SDS011;3638;48.820;9.244;2023-02-28T15:06:30;10.30;;;9.17;;
7193;SDS011;3638;48.820;9.244;2023-02-28T15:09:07;10.83;;;8.60;;
7193;SDS011;3638;48.820;9.244;2023-02-28T15:11:41;9.93;;;8.87;;
7193;SDS011;3638;48.820;9.244;2023-02-28T15:14:13;11.60;;;9.50;;
7193;SDS011;3638;48.820;9.244;2023-02-28T15:16:45;10.47;;;9.37;;
7193;SDS011;3638;48.820;9.244;2023-02-28T15:19:17;11.03;;;9.93;;
7193;SDS011;3638;48.820;9.244;2023-02-28T15:21:48;10.97;;;9.17;;
7193;SDS011;3638;48.820;9.244;2023-02-28T15:24:30;9.70;;;8.70;;
7193;SDS011;3638;48.820;9.244;2023-02-28T15:27:03;10.70;;;9.60;;
7193;SDS011;3638;48.820;9.244;2023-02-28T15:29:40;10.30;;;9.30;;
7193;SDS011;3638;48.820;9.244;2023-02-28T15:32:21;9.80;;;8.80;;
7193;SDS011;3638;48.820;9.244;2023-02-28T15:34:54;10.70;;;8.60;;
7193;SDS011;3638;48.820;9.244;2023-02-28T15:37:29;12.00;;;9.57;;
7193;SDS011;3638;48.820;9.244;2023-02-28T15:40:10;10.33;;;8.77;;
7193;SDS011;3638;48.820;9.244;2023-02-28T15:42:41;9.50;;;8.60;;
7193;SDS011;3638;48.820;9.244;2023-02-28T15:48:02;11.03;;;9.00;;
7193;SDS011;3638;48.820;9.244;2023-02-28T15:50:29;10.60;;;8.93;;
7193;SDS011;3638;48.820;9.244;2023-02-28T15:52:56;11.27;;;9.40;;
7193;SDS011;3638;48.820;9.244;2023-02-28T15:55:26;10.60;;;8.87;;
7193;SDS011;3638;48.820;9.244;2023-02-28T15:57:55;12.67;;;8.97;;
7193;SDS011;3638;48.820;9.244;2023-02-28T16:00:30;11.23;;;9.30;;
7193;SDS011;3638;48.820;9.244;2023-02-28T16:02:58;10.10;;;9.10;;
7193;SDS011;3638;48.820;9.244;2023-02-28T16:05:26;11.17;;;9.10;;
7193;SDS011;3638;48.820;9.244;2023-02-28T16:07:58;10.33;;;8.97;;
7193;SDS011;3638;48.820;9.244;2023-02-28T16:10:28;10.83;;;9.80;;
7193;SDS011;3638;48.820;9.244;2023-02-28T16:12:56;10.20;;;9.13;;
7193;SDS011;3638;48.820;9.244;2023-02-28T16:15:24;10.63;;;9.53;;